Terminal Aerodrome Forecast
Issued by NWS Des Moines, IA

Home | Current Version | Previous Version | Text Only | Print | Product List | Glossary On
Versions: 1 2 3 4 5 6 7 8 9 10 11 12 13 14 15 16 17 18 19 20 21 22 23 24 25 26 27 28 29 30 31 32 33
000
FTUS43 KDMX 270808 AAA
TAFDSM
TAF AMD
KDSM 270808Z 2708/2806 34007KT P6SM OVC019
     FM271000 31007KT P6SM SCT019
     FM271600 05005KT P6SM SCT030
     FM271900 12006KT P6SM SCT030=

USA.gov is the U.S. government's official web portal to all federal, state and local government web resources and services.